sensor_id;sensor_type;location;lat;lon;timestamp;temperature;humidity
18823;DHT22;9540;51.550;7.980;2023-08-07T00:00:43;13.20;99.90
18823;DHT22;9540;51.550;7.980;2023-08-07T00:03:10;13.20;99.90
18823;DHT22;9540;51.550;7.980;2023-08-07T00:05:45;13.20;99.90
18823;DHT22;9540;51.550;7.980;2023-08-07T00:08:12;13.10;99.90
18823;DHT22;9540;51.550;7.980;2023-08-07T00:10:41;13.20;99.90
18823;DHT22;9540;51.550;7.980;2023-08-07T00:13:08;13.20;99.90
18823;DHT22;9540;51.550;7.980;2023-08-07T00:15:38;13.20;99.90
18823;DHT22;9540;51.550;7.980;2023-08-07T00:18:05;13.20;99.90
18823;DHT22;9540;51.550;7.980;2023-08-07T00:20:32;13.20;99.90
18823;DHT22;9540;51.550;7.980;2023-08-07T00:23:00;13.20;99.90
18823;DHT22;9540;51.550;7.980;2023-08-07T00:25:27;13.10;99.90
18823;DHT22;9540;51.550;7.980;2023-08-07T00:27:55;13.10;99.90
18823;DHT22;9540;51.550;7.980;2023-08-07T00:30:23;13.10;99.90
18823;DHT22;9540;51.550;7.980;2023-08-07T00:32:50;13.10;99.90
18823;DHT22;9540;51.550;7.980;2023-08-07T00:35:17;13.10;99.90
18823;DHT22;9540;51.550;7.980;2023-08-07T00:37:44;13.10;99.90
18823;DHT22;9540;51.550;7.980;2023-08-07T00:40:12;13.10;99.90
18823;DHT22;9540;51.550;7.980;2023-08-07T00:42:39;13.10;99.90
18823;DHT22;9540;51.550;7.980;2023-08-07T00:45:09;13.10;99.90
18823;DHT22;9540;51.550;7.980;2023-08-07T00:47:36;13.10;99.90
18823;DHT22;9540;51.550;7.980;2023-08-07T00:50:05;13.10;99.90
18823;DHT22;9540;51.550;7.980;2023-08-07T00:52:34;13.10;99.90
18823;DHT22;9540;51.550;7.980;2023-08-07T00:55:01;13.10;99.90
18823;DHT22;9540;51.550;7.980;2023-08-07T00:57:29;13.10;99.90
18823;DHT22;9540;51.550;7.980;2023-08-07T00:59:58;13.10;99.90
18823;DHT22;9540;51.550;7.980;2023-08-07T01:02:27;13.10;99.90
18823;DHT22;9540;51.550;7.980;2023-08-07T01:04:54;13.10;99.90
18823;DHT22;9540;51.550;7.980;2023-08-07T01:07:22;13.10;99.90
18823;DHT22;9540;51.550;7.980;2023-08-07T01:09:49;13.10;99.90
18823;DHT22;9540;51.550;7.980;2023-08-07T01:12:19;13.10;99.90
18823;DHT22;9540;51.550;7.980;2023-08-07T01:14:52;13.10;99.90
18823;DHT22;9540;51.550;7.980;2023-08-07T01:17:22;13.10;99.90
18823;DHT22;9540;51.550;7.980;2023-08-07T01:19:52;13.20;99.90
18823;DHT22;9540;51.550;7.980;2023-08-07T01:22:21;13.20;99.90
18823;DHT22;9540;51.550;7.980;2023-08-07T01:24:50;13.20;99.90
18823;DHT22;9540;51.550;7.980;2023-08-07T01:27:31;13.20;99.90
18823;DHT22;9540;51.550;7.980;2023-08-07T01:30:05;13.20;99.90
18823;DHT22;9540;51.550;7.980;2023-08-07T01:32:39;13.20;99.90
18823;DHT22;9540;51.550;7.980;2023-08-07T01:35:08;13.20;99.90
18823;DHT22;9540;51.550;7.980;2023-08-07T01:37:40;13.30;99.90
18823;DHT22;9540;51.550;7.980;2023-08-07T01:40:09;13.30;99.90
18823;DHT22;9540;51.550;7.980;2023-08-07T01:42:37;13.30;99.90
18823;DHT22;9540;51.550;7.980;2023-08-07T01:45:05;13.30;99.90
18823;DHT22;9540;51.550;7.980;2023-08-07T01:47:32;13.30;99.90
18823;DHT22;9540;51.550;7.980;2023-08-07T01:50:00;13.30;99.90
18823;DHT22;9540;51.550;7.980;2023-08-07T01:52:28;13.40;99.90
18823;DHT22;9540;51.550;7.980;2023-08-07T01:54:57;13.40;99.90
18823;DHT22;9540;51.550;7.980;2023-08-07T01:57:24;13.40;99.90
18823;DHT22;9540;51.550;7.980;2023-08-07T01:59:52;13.40;99.90
18823;DHT22;9540;51.550;7.980;2023-08-07T02:02:19;13.40;99.90
18823;DHT22;9540;51.550;7.980;2023-08-07T02:04:46;13.40;99.90
18823;DHT22;9540;51.550;7.980;2023-08-07T02:07:14;13.40;99.90
18823;DHT22;9540;51.550;7.980;2023-08-07T02:09:41;13.40;99.90
18823;DHT22;9540;51.550;7.980;2023-08-07T02:12:10;13.40;99.90
18823;DHT22;9540;51.550;7.980;2023-08-07T02:14:38;13.40;99.90
18823;DHT22;9540;51.550;7.980;2023-08-07T02:17:05;13.40;99.90
18823;DHT22;9540;51.550;7.980;2023-08-07T02:19:32;13.40;99.90
18823;DHT22;9540;51.550;7.980;2023-08-07T02:21:59;13.40;99.90
18823;DHT22;9540;51.550;7.980;2023-08-07T02:24:27;13.40;99.90
18823;DHT22;9540;51.550;7.980;2023-08-07T02:26:54;13.40;99.90
18823;DHT22;9540;51.550;7.980;2023-08-07T02:29:23;13.40;99.90
18823;DHT22;9540;51.550;7.980;2023-08-07T02:31:50;13.40;99.90
18823;DHT22;9540;51.550;7.980;2023-08-07T02:34:17;13.40;99.90
18823;DHT22;9540;51.550;7.980;2023-08-07T02:36:44;13.30;99.90
18823;DHT22;9540;51.550;7.980;2023-08-07T02:39:13;13.30;99.90
18823;DHT22;9540;51.550;7.980;2023-08-07T02:41:41;13.30;99.90
18823;DHT22;9540;51.550;7.980;2023-08-07T02:44:08;13.30;99.90
18823;DHT22;9540;51.550;7.980;2023-08-07T02:46:37;13.30;99.90
18823;DHT22;9540;51.550;7.980;2023-08-07T02:49:04;13.20;99.90
18823;DHT22;9540;51.550;7.980;2023-08-07T02:51:32;13.10;99.90
18823;DHT22;9540;51.550;7.980;2023-08-07T02:53:59;13.10;99.90
18823;DHT22;9540;51.550;7.980;2023-08-07T02:56:27;13.20;99.90
18823;DHT22;9540;51.550;7.980;2023-08-07T02:58:54;13.20;99.90
18823;DHT22;9540;51.550;7.980;2023-08-07T03:01:23;13.10;99.90
18823;DHT22;9540;51.550;7.980;2023-08-07T03:03:54;13.10;99.90
18823;DHT22;9540;51.550;7.980;2023-08-07T03:06:23;13.10;99.90
18823;DHT22;9540;51.550;7.980;2023-08-07T03:08:50;13.10;99.90
18823;DHT22;9540;51.550;7.980;2023-08-07T03:11:17;13.00;99.90
18823;DHT22;9540;51.550;7.980;2023-08-07T03:13:45;13.00;99.90
18823;DHT22;9540;51.550;7.980;2023-08-07T03:16:12;13.00;99.90
18823;DHT22;9540;51.550;7.980;2023-08-07T03:18:39;13.00;99.90
18823;DHT22;9540;51.550;7.980;2023-08-07T03:21:08;13.00;99.90
18823;DHT22;9540;51.550;7.980;2023-08-07T03:23:36;13.00;99.90
18823;DHT22;9540;51.550;7.980;2023-08-07T03:26:04;13.00;99.90
18823;DHT22;9540;51.550;7.980;2023-08-07T03:28:32;13.00;99.90
18823;DHT22;9540;51.550;7.980;2023-08-07T03:31:00;13.00;99.90
18823;DHT22;9540;51.550;7.980;2023-08-07T03:33:27;13.00;99.90
18823;DHT22;9540;51.550;7.980;2023-08-07T03:35:54;13.00;99.90
18823;DHT22;9540;51.550;7.980;2023-08-07T03:38:23;13.00;99.90
18823;DHT22;9540;51.550;7.980;2023-08-07T03:40:51;13.10;99.90
18823;DHT22;9540;51.550;7.980;2023-08-07T03:43:18;13.10;99.90
18823;DHT22;9540;51.550;7.980;2023-08-07T03:45:45;13.10;99.90
18823;DHT22;9540;51.550;7.980;2023-08-07T03:48:13;13.10;99.90
18823;DHT22;9540;51.550;7.980;2023-08-07T03:50:40;13.10;99.90
18823;DHT22;9540;51.550;7.980;2023-08-07T03:53:07;13.10;99.90
18823;DHT22;9540;51.550;7.980;2023-08-07T03:55:36;13.10;99.90
18823;DHT22;9540;51.550;7.980;2023-08-07T03:58:03;13.10;99.90
18823;DHT22;9540;51.550;7.980;2023-08-07T04:00:30;13.10;99.90
18823;DHT22;9540;51.550;7.980;2023-08-07T04:02:58;13.10;99.90
18823;DHT22;9540;51.550;7.980;2023-08-07T04:05:25;13.10;99.90
18823;DHT22;9540;51.550;7.980;2023-08-07T04:07:52;13.10;99.90
18823;DHT22;9540;51.550;7.980;2023-08-07T04:10:19;13.10;99.90
18823;DHT22;9540;51.550;7.980;2023-08-07T04:12:48;13.10;99.90
18823;DHT22;9540;51.550;7.980;2023-08-07T04:15:15;13.10;99.90
18823;DHT22;9540;51.550;7.980;2023-08-07T04:17:43;13.10;99.90
18823;DHT22;9540;51.550;7.980;2023-08-07T04:20:10;13.10;99.90
18823;DHT22;9540;51.550;7.980;2023-08-07T04:22:37;13.10;99.90
18823;DHT22;9540;51.550;7.980;2023-08-07T04:25:05;13.10;99.90
18823;DHT22;9540;51.550;7.980;2023-08-07T04:27:33;13.20;99.90
18823;DHT22;9540;51.550;7.980;2023-08-07T04:30:02;13.20;99.90
18823;DHT22;9540;51.550;7.980;2023-08-07T04:32:29;13.10;99.90
18823;DHT22;9540;51.550;7.980;2023-08-07T04:34:56;13.10;99.90
18823;DHT22;9540;51.550;7.980;2023-08-07T04:37:23;13.10;99.90
18823;DHT22;9540;51.550;7.980;2023-08-07T04:39:50;13.10;99.90
18823;DHT22;9540;51.550;7.980;2023-08-07T04:42:20;13.10;99.90
18823;DHT22;9540;51.550;7.980;2023-08-07T04:44:47;13.10;99.90
18823;DHT22;9540;51.550;7.980;2023-08-07T04:47:16;13.10;99.90
18823;DHT22;9540;51.550;7.980;2023-08-07T04:49:43;13.10;99.90
18823;DHT22;9540;51.550;7.980;2023-08-07T04:52:10;13.00;99.90
18823;DHT22;9540;51.550;7.980;2023-08-07T04:54:38;13.00;99.90
18823;DHT22;9540;51.550;7.980;2023-08-07T04:57:05;13.00;99.90
18823;DHT22;9540;51.550;7.980;2023-08-07T04:59:33;13.00;99.90
18823;DHT22;9540;51.550;7.980;2023-08-07T05:02:01;13.10;99.90
18823;DHT22;9540;51.550;7.980;2023-08-07T05:04:30;13.00;99.90
18823;DHT22;9540;51.550;7.980;2023-08-07T05:06:57;13.00;99.90
18823;DHT22;9540;51.550;7.980;2023-08-07T05:09:24;13.00;99.90
18823;DHT22;9540;51.550;7.980;2023-08-07T05:11:52;13.00;99.90
18823;DHT22;9540;51.550;7.980;2023-08-07T05:14:22;12.90;99.90
18823;DHT22;9540;51.550;7.980;2023-08-07T05:16:49;13.00;99.90
18823;DHT22;9540;51.550;7.980;2023-08-07T05:19:16;12.90;99.90
18823;DHT22;9540;51.550;7.980;2023-08-07T05:21:45;13.00;99.90
18823;DHT22;9540;51.550;7.980;2023-08-07T05:24:15;13.00;99.90
18823;DHT22;9540;51.550;7.980;2023-08-07T05:26:43;13.00;99.90
18823;DHT22;9540;51.550;7.980;2023-08-07T05:29:10;13.00;99.90
18823;DHT22;9540;51.550;7.980;2023-08-07T05:31:37;13.00;99.90
18823;DHT22;9540;51.550;7.980;2023-08-07T05:34:05;13.00;99.90
18823;DHT22;9540;51.550;7.980;2023-08-07T05:36:32;13.00;99.90
18823;DHT22;9540;51.550;7.980;2023-08-07T05:39:01;13.00;99.90
18823;DHT22;9540;51.550;7.980;2023-08-07T05:41:29;13.00;99.90
18823;DHT22;9540;51.550;7.980;2023-08-07T05:43:57;13.00;99.90
18823;DHT22;9540;51.550;7.980;2023-08-07T05:46:24;12.90;99.90
18823;DHT22;9540;51.550;7.980;2023-08-07T05:48:51;12.90;99.90
18823;DHT22;9540;51.550;7.980;2023-08-07T05:51:22;12.90;99.90
18823;DHT22;9540;51.550;7.980;2023-08-07T05:53:50;12.90;99.90
18823;DHT22;9540;51.550;7.980;2023-08-07T05:56:19;13.00;99.90
18823;DHT22;9540;51.550;7.980;2023-08-07T05:58:46;13.00;99.90
18823;DHT22;9540;51.550;7.980;2023-08-07T06:01:13;13.00;99.90
18823;DHT22;9540;51.550;7.980;2023-08-07T06:03:43;13.00;99.90
18823;DHT22;9540;51.550;7.980;2023-08-07T06:06:10;13.00;99.90
18823;DHT22;9540;51.550;7.980;2023-08-07T06:08:37;13.00;99.90
18823;DHT22;9540;51.550;7.980;2023-08-07T06:11:05;13.00;99.90
18823;DHT22;9540;51.550;7.980;2023-08-07T06:13:35;13.00;99.90
18823;DHT22;9540;51.550;7.980;2023-08-07T06:16:02;12.90;99.90
18823;DHT22;9540;51.550;7.980;2023-08-07T06:18:30;12.90;99.90
18823;DHT22;9540;51.550;7.980;2023-08-07T06:20:57;13.00;99.90
18823;DHT22;9540;51.550;7.980;2023-08-07T06:23:24;13.00;99.90
18823;DHT22;9540;51.550;7.980;2023-08-07T06:25:51;13.00;99.90
18823;DHT22;9540;51.550;7.980;2023-08-07T06:28:19;13.00;99.90
18823;DHT22;9540;51.550;7.980;2023-08-07T06:30:48;13.00;99.90
18823;DHT22;9540;51.550;7.980;2023-08-07T06:33:15;13.00;99.90
18823;DHT22;9540;51.550;7.980;2023-08-07T06:35:42;13.00;99.90
18823;DHT22;9540;51.550;7.980;2023-08-07T06:38:10;12.90;99.90
18823;DHT22;9540;51.550;7.980;2023-08-07T06:40:38;13.00;99.90
18823;DHT22;9540;51.550;7.980;2023-08-07T06:43:05;13.00;99.90
18823;DHT22;9540;51.550;7.980;2023-08-07T06:45:33;12.90;99.90
18823;DHT22;9540;51.550;7.980;2023-08-07T06:48:02;13.00;99.90
18823;DHT22;9540;51.550;7.980;2023-08-07T06:50:29;13.00;99.90
18823;DHT22;9540;51.550;7.980;2023-08-07T06:52:56;13.00;99.90
18823;DHT22;9540;51.550;7.980;2023-08-07T06:55:24;13.00;99.90
18823;DHT22;9540;51.550;7.980;2023-08-07T06:57:51;13.00;99.90
18823;DHT22;9540;51.550;7.980;2023-08-07T07:00:18;13.00;99.90
18823;DHT22;9540;51.550;7.980;2023-08-07T07:02:46;13.00;99.90
18823;DHT22;9540;51.550;7.980;2023-08-07T07:05:14;13.10;99.90
18823;DHT22;9540;51.550;7.980;2023-08-07T07:07:42;13.00;99.90
18823;DHT22;9540;51.550;7.980;2023-08-07T07:10:09;13.10;99.90
18823;DHT22;9540;51.550;7.980;2023-08-07T07:12:37;13.10;99.90
18823;DHT22;9540;51.550;7.980;2023-08-07T07:15:05;13.10;99.90
18823;DHT22;9540;51.550;7.980;2023-08-07T07:17:32;13.10;99.90
18823;DHT22;9540;51.550;7.980;2023-08-07T07:19:59;13.10;99.90
18823;DHT22;9540;51.550;7.980;2023-08-07T07:22:28;13.10;99.90
18823;DHT22;9540;51.550;7.980;2023-08-07T07:24:55;13.10;99.90
18823;DHT22;9540;51.550;7.980;2023-08-07T07:27:23;13.20;99.90
18823;DHT22;9540;51.550;7.980;2023-08-07T07:29:52;13.30;99.90
18823;DHT22;9540;51.550;7.980;2023-08-07T07:32:19;13.30;99.90
18823;DHT22;9540;51.550;7.980;2023-08-07T07:34:46;13.30;99.90
18823;DHT22;9540;51.550;7.980;2023-08-07T07:37:14;13.40;99.90
18823;DHT22;9540;51.550;7.980;2023-08-07T07:39:44;13.40;99.90
18823;DHT22;9540;51.550;7.980;2023-08-07T07:42:11;13.40;99.90
18823;DHT22;9540;51.550;7.980;2023-08-07T07:44:38;13.50;99.90
18823;DHT22;9540;51.550;7.980;2023-08-07T07:47:07;13.50;99.90
18823;DHT22;9540;51.550;7.980;2023-08-07T07:49:34;13.50;99.90
18823;DHT22;9540;51.550;7.980;2023-08-07T07:52:01;13.50;99.90
18823;DHT22;9540;51.550;7.980;2023-08-07T07:54:29;13.50;99.90
18823;DHT22;9540;51.550;7.980;2023-08-07T07:56:57;13.50;99.90
18823;DHT22;9540;51.550;7.980;2023-08-07T07:59:25;13.50;99.90
18823;DHT22;9540;51.550;7.980;2023-08-07T08:01:52;13.50;99.90
18823;DHT22;9540;51.550;7.980;2023-08-07T08:04:19;13.60;99.90
18823;DHT22;9540;51.550;7.980;2023-08-07T08:06:47;13.60;99.90
18823;DHT22;9540;51.550;7.980;2023-08-07T08:09:15;13.70;99.90
18823;DHT22;9540;51.550;7.980;2023-08-07T08:11:42;13.70;99.90
18823;DHT22;9540;51.550;7.980;2023-08-07T08:14:10;13.70;99.90
18823;DHT22;9540;51.550;7.980;2023-08-07T08:16:38;13.80;99.90
18823;DHT22;9540;51.550;7.980;2023-08-07T08:19:05;13.80;99.90
18823;DHT22;9540;51.550;7.980;2023-08-07T08:21:34;13.90;99.90
18823;DHT22;9540;51.550;7.980;2023-08-07T08:24:01;13.80;99.90
18823;DHT22;9540;51.550;7.980;2023-08-07T08:26:29;13.90;99.90
18823;DHT22;9540;51.550;7.980;2023-08-07T08:28:56;14.00;99.90
18823;DHT22;9540;51.550;7.980;2023-08-07T08:31:25;14.10;99.90
18823;DHT22;9540;51.550;7.980;2023-08-07T08:33:52;14.20;99.90
18823;DHT22;9540;51.550;7.980;2023-08-07T08:36:19;14.30;99.90
18823;DHT22;9540;51.550;7.980;2023-08-07T08:38:47;14.20;99.90
18823;DHT22;9540;51.550;7.980;2023-08-07T08:41:14;14.20;99.90
18823;DHT22;9540;51.550;7.980;2023-08-07T08:43:45;14.10;99.90
18823;DHT22;9540;51.550;7.980;2023-08-07T08:46:15;14.10;99.90
18823;DHT22;9540;51.550;7.980;2023-08-07T08:48:47;14.10;99.90
18823;DHT22;9540;51.550;7.980;2023-08-07T08:51:16;14.10;99.90
18823;DHT22;9540;51.550;7.980;2023-08-07T08:53:45;14.10;99.90
18823;DHT22;9540;51.550;7.980;2023-08-07T08:56:16;14.20;99.90
18823;DHT22;9540;51.550;7.980;2023-08-07T08:58:44;14.30;99.90
18823;DHT22;9540;51.550;7.980;2023-08-07T09:01:12;14.30;99.90
18823;DHT22;9540;51.550;7.980;2023-08-07T09:03:39;14.30;99.90
18823;DHT22;9540;51.550;7.980;2023-08-07T09:06:08;14.40;99.90
18823;DHT22;9540;51.550;7.980;2023-08-07T09:08:38;14.50;99.90
18823;DHT22;9540;51.550;7.980;2023-08-07T09:11:08;14.60;99.90
18823;DHT22;9540;51.550;7.980;2023-08-07T09:13:36;14.60;99.90
18823;DHT22;9540;51.550;7.980;2023-08-07T09:16:05;14.70;99.90
18823;DHT22;9540;51.550;7.980;2023-08-07T09:18:34;14.80;99.90
18823;DHT22;9540;51.550;7.980;2023-08-07T09:21:02;14.70;99.90
18823;DHT22;9540;51.550;7.980;2023-08-07T09:23:31;14.80;99.90
18823;DHT22;9540;51.550;7.980;2023-08-07T09:26:03;14.90;99.90
18823;DHT22;9540;51.550;7.980;2023-08-07T09:28:32;14.90;99.90
18823;DHT22;9540;51.550;7.980;2023-08-07T09:30:59;14.80;99.90
18823;DHT22;9540;51.550;7.980;2023-08-07T09:33:28;14.80;99.90
18823;DHT22;9540;51.550;7.980;2023-08-07T09:35:58;14.90;99.90
18823;DHT22;9540;51.550;7.980;2023-08-07T09:38:28;14.90;99.90
18823;DHT22;9540;51.550;7.980;2023-08-07T09:41:00;14.80;99.90
18823;DHT22;9540;51.550;7.980;2023-08-07T09:43:29;14.90;99.90
18823;DHT22;9540;51.550;7.980;2023-08-07T09:46:02;14.90;99.90
18823;DHT22;9540;51.550;7.980;2023-08-07T09:48:30;14.90;99.90
18823;DHT22;9540;51.550;7.980;2023-08-07T09:51:00;15.00;99.90
18823;DHT22;9540;51.550;7.980;2023-08-07T09:53:29;14.90;99.90
18823;DHT22;9540;51.550;7.980;2023-08-07T09:55:59;15.00;99.90
18823;DHT22;9540;51.550;7.980;2023-08-07T09:58:28;15.10;99.90
18823;DHT22;9540;51.550;7.980;2023-08-07T10:00:56;15.10;99.90
18823;DHT22;9540;51.550;7.980;2023-08-07T10:03:25;15.00;99.90
18823;DHT22;9540;51.550;7.980;2023-08-07T10:05:53;14.80;99.90
18823;DHT22;9540;51.550;7.980;2023-08-07T10:08:21;14.80;99.90
18823;DHT22;9540;51.550;7.980;2023-08-07T10:10:50;14.70;99.90
18823;DHT22;9540;51.550;7.980;2023-08-07T10:13:19;14.80;99.90
18823;DHT22;9540;51.550;7.980;2023-08-07T10:15:47;14.80;99.90
18823;DHT22;9540;51.550;7.980;2023-08-07T10:18:15;14.80;99.90
18823;DHT22;9540;51.550;7.980;2023-08-07T10:20:42;14.80;99.90
18823;DHT22;9540;51.550;7.980;2023-08-07T10:23:11;14.80;99.90
18823;DHT22;9540;51.550;7.980;2023-08-07T10:25:43;14.70;99.90
18823;DHT22;9540;51.550;7.980;2023-08-07T10:28:16;14.80;99.90
18823;DHT22;9540;51.550;7.980;2023-08-07T10:30:45;14.80;99.90
18823;DHT22;9540;51.550;7.980;2023-08-07T10:33:14;15.00;99.90
18823;DHT22;9540;51.550;7.980;2023-08-07T10:35:45;15.40;99.90
18823;DHT22;9540;51.550;7.980;2023-08-07T10:38:13;15.50;99.90
18823;DHT22;9540;51.550;7.980;2023-08-07T10:41:00;15.40;99.90
18823;DHT22;9540;51.550;7.980;2023-08-07T10:43:28;15.30;99.90
18823;DHT22;9540;51.550;7.980;2023-08-07T10:46:03;15.10;99.90
18823;DHT22;9540;51.550;7.980;2023-08-07T10:48:38;15.00;99.90
18823;DHT22;9540;51.550;7.980;2023-08-07T10:51:05;14.90;99.90
18823;DHT22;9540;51.550;7.980;2023-08-07T10:53:35;14.90;99.90
18823;DHT22;9540;51.550;7.980;2023-08-07T10:56:04;15.10;99.90
18823;DHT22;9540;51.550;7.980;2023-08-07T10:58:34;15.20;99.90
18823;DHT22;9540;51.550;7.980;2023-08-07T11:01:28;15.30;99.90
18823;DHT22;9540;51.550;7.980;2023-08-07T11:04:06;15.40;99.90
18823;DHT22;9540;51.550;7.980;2023-08-07T11:06:35;15.50;99.90
18823;DHT22;9540;51.550;7.980;2023-08-07T11:09:04;15.70;99.90
18823;DHT22;9540;51.550;7.980;2023-08-07T11:11:36;15.70;99.90
18823;DHT22;9540;51.550;7.980;2023-08-07T11:14:05;15.70;99.90
18823;DHT22;9540;51.550;7.980;2023-08-07T11:16:35;15.70;99.90
18823;DHT22;9540;51.550;7.980;2023-08-07T11:19:03;15.70;99.90
18823;DHT22;9540;51.550;7.980;2023-08-07T11:21:31;15.80;99.90
18823;DHT22;9540;51.550;7.980;2023-08-07T11:23:58;15.80;99.90
18823;DHT22;9540;51.550;7.980;2023-08-07T11:26:26;15.80;99.90
18823;DHT22;9540;51.550;7.980;2023-08-07T11:28:54;15.90;99.90
18823;DHT22;9540;51.550;7.980;2023-08-07T11:31:22;15.90;99.90
18823;DHT22;9540;51.550;7.980;2023-08-07T11:33:52;16.10;99.90
18823;DHT22;9540;51.550;7.980;2023-08-07T11:36:19;16.10;99.90
18823;DHT22;9540;51.550;7.980;2023-08-07T11:38:47;16.30;99.90
18823;DHT22;9540;51.550;7.980;2023-08-07T11:41:15;16.40;99.90
18823;DHT22;9540;51.550;7.980;2023-08-07T11:43:43;16.40;99.90
18823;DHT22;9540;51.550;7.980;2023-08-07T11:46:12;16.50;99.90
18823;DHT22;9540;51.550;7.980;2023-08-07T11:48:41;16.70;99.90
18823;DHT22;9540;51.550;7.980;2023-08-07T11:51:10;16.90;99.90
18823;DHT22;9540;51.550;7.980;2023-08-07T11:53:39;17.00;99.90
18823;DHT22;9540;51.550;7.980;2023-08-07T11:56:08;16.90;99.90
18823;DHT22;9540;51.550;7.980;2023-08-07T11:58:37;16.90;99.90
18823;DHT22;9540;51.550;7.980;2023-08-07T12:01:05;16.90;99.90
18823;DHT22;9540;51.550;7.980;2023-08-07T12:03:35;17.20;99.90
18823;DHT22;9540;51.550;7.980;2023-08-07T12:06:05;17.10;99.90
18823;DHT22;9540;51.550;7.980;2023-08-07T12:08:35;16.90;99.90
18823;DHT22;9540;51.550;7.980;2023-08-07T12:11:04;16.70;99.90
18823;DHT22;9540;51.550;7.980;2023-08-07T12:13:31;16.40;99.90
18823;DHT22;9540;51.550;7.980;2023-08-07T12:16:01;16.30;99.90
18823;DHT22;9540;51.550;7.980;2023-08-07T12:18:30;16.20;99.90
18823;DHT22;9540;51.550;7.980;2023-08-07T12:20:59;16.20;99.90
18823;DHT22;9540;51.550;7.980;2023-08-07T12:23:27;16.10;99.90
18823;DHT22;9540;51.550;7.980;2023-08-07T12:25:56;16.00;99.90
18823;DHT22;9540;51.550;7.980;2023-08-07T12:28:26;16.10;99.90
18823;DHT22;9540;51.550;7.980;2023-08-07T12:30:54;16.30;99.90
18823;DHT22;9540;51.550;7.980;2023-08-07T12:33:21;16.60;99.90
18823;DHT22;9540;51.550;7.980;2023-08-07T12:35:48;16.90;99.90
18823;DHT22;9540;51.550;7.980;2023-08-07T12:38:16;16.90;99.90
18823;DHT22;9540;51.550;7.980;2023-08-07T12:40:43;16.90;99.90
18823;DHT22;9540;51.550;7.980;2023-08-07T12:43:12;16.90;99.90
18823;DHT22;9540;51.550;7.980;2023-08-07T12:45:39;17.00;99.90
18823;DHT22;9540;51.550;7.980;2023-08-07T12:48:07;17.00;99.90
18823;DHT22;9540;51.550;7.980;2023-08-07T12:50:34;17.20;99.90
18823;DHT22;9540;51.550;7.980;2023-08-07T12:53:02;17.30;99.90
18823;DHT22;9540;51.550;7.980;2023-08-07T12:55:30;17.60;99.90
18823;DHT22;9540;51.550;7.980;2023-08-07T12:57:57;17.80;99.90
18823;DHT22;9540;51.550;7.980;2023-08-07T13:00:27;17.90;99.90
18823;DHT22;9540;51.550;7.980;2023-08-07T13:02:54;17.80;99.90
18823;DHT22;9540;51.550;7.980;2023-08-07T13:05:22;17.70;99.90
18823;DHT22;9540;51.550;7.980;2023-08-07T13:07:51;17.80;99.90
18823;DHT22;9540;51.550;7.980;2023-08-07T13:10:20;17.90;99.90
18823;DHT22;9540;51.550;7.980;2023-08-07T13:12:48;18.10;99.90
18823;DHT22;9540;51.550;7.980;2023-08-07T13:15:16;18.30;99.90
18823;DHT22;9540;51.550;7.980;2023-08-07T13:17:45;18.40;99.90
18823;DHT22;9540;51.550;7.980;2023-08-07T13:20:14;18.40;99.90
18823;DHT22;9540;51.550;7.980;2023-08-07T13:22:42;18.30;99.90
18823;DHT22;9540;51.550;7.980;2023-08-07T13:25:11;18.20;99.90
18823;DHT22;9540;51.550;7.980;2023-08-07T13:27:39;18.10;99.90
18823;DHT22;9540;51.550;7.980;2023-08-07T13:30:08;18.10;99.90
18823;DHT22;9540;51.550;7.980;2023-08-07T13:32:36;18.10;99.90
18823;DHT22;9540;51.550;7.980;2023-08-07T13:35:06;18.30;99.90
18823;DHT22;9540;51.550;7.980;2023-08-07T13:37:35;18.50;99.90
18823;DHT22;9540;51.550;7.980;2023-08-07T13:40:05;18.70;99.90
18823;DHT22;9540;51.550;7.980;2023-08-07T13:42:33;18.90;99.90
18823;DHT22;9540;51.550;7.980;2023-08-07T13:45:00;18.90;99.90
18823;DHT22;9540;51.550;7.980;2023-08-07T13:47:27;19.10;99.90
18823;DHT22;9540;51.550;7.980;2023-08-07T13:49:55;19.00;99.90
18823;DHT22;9540;51.550;7.980;2023-08-07T13:52:25;18.80;99.90
18823;DHT22;9540;51.550;7.980;2023-08-07T13:54:52;18.70;99.90
18823;DHT22;9540;51.550;7.980;2023-08-07T13:57:20;18.70;99.90
18823;DHT22;9540;51.550;7.980;2023-08-07T13:59:47;18.70;99.90
18823;DHT22;9540;51.550;7.980;2023-08-07T14:02:14;18.70;99.90
18823;DHT22;9540;51.550;7.980;2023-08-07T14:04:42;18.80;99.90
18823;DHT22;9540;51.550;7.980;2023-08-07T14:07:11;18.90;99.90
18823;DHT22;9540;51.550;7.980;2023-08-07T14:09:40;18.90;99.90
18823;DHT22;9540;51.550;7.980;2023-08-07T14:12:08;18.90;99.90
18823;DHT22;9540;51.550;7.980;2023-08-07T14:14:37;18.90;99.90
18823;DHT22;9540;51.550;7.980;2023-08-07T14:17:05;19.00;99.90
18823;DHT22;9540;51.550;7.980;2023-08-07T14:19:32;19.00;99.90
18823;DHT22;9540;51.550;7.980;2023-08-07T14:22:00;19.10;99.90
18823;DHT22;9540;51.550;7.980;2023-08-07T14:24:27;19.00;99.90
18823;DHT22;9540;51.550;7.980;2023-08-07T14:26:55;18.80;99.90
18823;DHT22;9540;51.550;7.980;2023-08-07T14:29:23;18.60;99.90
18823;DHT22;9540;51.550;7.980;2023-08-07T14:31:51;18.50;99.90
18823;DHT22;9540;51.550;7.980;2023-08-07T14:34:18;18.50;99.90
18823;DHT22;9540;51.550;7.980;2023-08-07T14:36:45;18.60;99.90
18823;DHT22;9540;51.550;7.980;2023-08-07T14:39:13;18.60;99.90
18823;DHT22;9540;51.550;7.980;2023-08-07T14:41:40;18.60;99.90
18823;DHT22;9540;51.550;7.980;2023-08-07T14:44:09;18.60;99.90
18823;DHT22;9540;51.550;7.980;2023-08-07T14:46:36;18.70;99.90
18823;DHT22;9540;51.550;7.980;2023-08-07T14:49:04;18.60;99.90
18823;DHT22;9540;51.550;7.980;2023-08-07T14:51:31;18.40;99.90
18823;DHT22;9540;51.550;7.980;2023-08-07T14:53:58;18.30;99.90
18823;DHT22;9540;51.550;7.980;2023-08-07T14:56:26;18.30;99.90
18823;DHT22;9540;51.550;7.980;2023-08-07T14:58:54;18.20;99.90
18823;DHT22;9540;51.550;7.980;2023-08-07T15:01:23;18.00;99.90
18823;DHT22;9540;51.550;7.980;2023-08-07T15:03:54;17.90;99.90
18823;DHT22;9540;51.550;7.980;2023-08-07T15:06:22;17.90;99.90
18823;DHT22;9540;51.550;7.980;2023-08-07T15:08:49;18.10;99.90
18823;DHT22;9540;51.550;7.980;2023-08-07T15:11:16;18.20;99.90
18823;DHT22;9540;51.550;7.980;2023-08-07T15:13:43;18.30;99.90
18823;DHT22;9540;51.550;7.980;2023-08-07T15:16:11;18.40;99.90
18823;DHT22;9540;51.550;7.980;2023-08-07T15:18:39;18.50;99.90
18823;DHT22;9540;51.550;7.980;2023-08-07T15:21:07;18.60;99.90
18823;DHT22;9540;51.550;7.980;2023-08-07T15:23:34;18.70;99.90
18823;DHT22;9540;51.550;7.980;2023-08-07T15:26:02;18.80;99.90
18823;DHT22;9540;51.550;7.980;2023-08-07T15:28:29;18.90;99.90
18823;DHT22;9540;51.550;7.980;2023-08-07T15:30:56;18.90;99.90
18823;DHT22;9540;51.550;7.980;2023-08-07T15:33:23;18.70;99.90
18823;DHT22;9540;51.550;7.980;2023-08-07T15:35:53;18.60;99.90
18823;DHT22;9540;51.550;7.980;2023-08-07T15:38:21;18.50;99.90
18823;DHT22;9540;51.550;7.980;2023-08-07T15:40:48;18.60;99.90
18823;DHT22;9540;51.550;7.980;2023-08-07T15:43:15;18.60;99.90
18823;DHT22;9540;51.550;7.980;2023-08-07T15:45:44;18.60;99.90
18823;DHT22;9540;51.550;7.980;2023-08-07T15:48:12;18.70;99.90
18823;DHT22;9540;51.550;7.980;2023-08-07T15:50:39;18.90;99.90